createdAt,value
2022-10-22T00:00:29.041Z,100733.13
2022-10-22T00:05:32.580Z,100731.81
2022-10-22T00:10:37.969Z,100730.94
2022-10-22T00:15:42.506Z,100703.81
2022-10-22T00:20:46.099Z,100705.63
2022-10-22T00:25:49.662Z,100694.66
2022-10-22T00:30:59.186Z,100689.72
2022-10-22T00:36:02.758Z,100679.03
2022-10-22T00:41:06.927Z,100672.00
2022-10-22T00:46:12.103Z,100673.25
2022-10-22T00:51:15.825Z,100671.72
2022-10-22T00:56:19.696Z,100652.25
2022-10-22T01:01:27.677Z,100642.47
2022-10-22T01:06:33.606Z,100637.00
2022-10-22T01:11:47.447Z,100628.84
2022-10-22T01:17:05.688Z,100647.50
2022-10-22T01:22:18.080Z,100672.97
2022-10-22T01:27:32.485Z,100689.25
2022-10-22T01:32:42.244Z,100684.44
2022-10-22T01:37:49.775Z,100696.06
2022-10-22T01:43:00.894Z,100700.63
2022-10-22T01:48:20.390Z,100720.16
2022-10-22T01:53:33.562Z,100717.06
2022-10-22T01:58:45.672Z,100713.84
2022-10-22T02:03:57.277Z,100727.09
2022-10-22T02:09:03.328Z,100732.94
2022-10-22T02:14:09.923Z,100738.09
2022-10-22T02:19:20.501Z,100745.38
2022-10-22T02:24:25.139Z,100729.72
2022-10-22T02:29:34.190Z,100721.88
2022-10-22T02:34:39.569Z,100715.91
2022-10-22T02:39:43.440Z,100703.28
2022-10-22T02:44:46.977Z,100682.03
2022-10-22T02:49:52.155Z,100671.91
2022-10-22T02:54:55.745Z,100677.00
2022-10-22T02:59:59.319Z,100667.56
2022-10-22T03:05:04.594Z,100660.66
2022-10-22T03:10:09.038Z,100657.97
2022-10-22T03:15:12.622Z,100660.38
2022-10-22T03:20:18.025Z,100670.91
2022-10-22T03:25:24.956Z,100666.72
2022-10-22T03:30:28.556Z,100678.13
2022-10-22T03:35:37.131Z,100661.66
2022-10-22T03:40:41.474Z,100658.38
2022-10-22T03:45:45.040Z,100677.34
2022-10-22T03:50:51.130Z,100687.69
2022-10-22T03:55:54.691Z,100675.47
2022-10-22T04:00:58.286Z,100660.50
2022-10-22T04:06:12.120Z,100682.69
2022-10-22T04:11:17.356Z,100677.41
2022-10-22T04:16:25.006Z,100680.03
2022-10-22T04:21:32.751Z,100667.00
2022-10-22T04:26:36.311Z,100646.53
2022-10-22T04:31:39.852Z,100639.44
2022-10-22T04:36:45.025Z,100656.31
2022-10-22T04:41:48.643Z,100651.88
2022-10-22T04:46:52.183Z,100646.66
2022-10-22T04:51:57.407Z,100644.03
2022-10-22T04:57:00.974Z,100634.13
2022-10-22T05:02:04.524Z,100623.78
2022-10-22T05:07:09.657Z,100611.56
2022-10-22T05:12:13.176Z,100610.84
2022-10-22T05:17:16.688Z,100595.78
2022-10-22T05:22:21.862Z,100598.84
2022-10-22T05:27:25.473Z,100608.16
2022-10-22T05:32:29.010Z,100617.03
2022-10-22T05:37:34.183Z,100628.41
2022-10-22T05:42:37.890Z,100620.91
2022-10-22T05:47:41.652Z,100617.97
2022-10-22T05:52:46.864Z,100644.38
2022-10-22T05:57:50.403Z,100652.59
2022-10-22T06:02:53.907Z,100638.41
2022-10-22T06:08:00.007Z,100621.72
2022-10-22T06:13:03.552Z,100636.66
2022-10-22T06:18:07.125Z,100630.72
2022-10-22T06:23:12.313Z,100631.84
2022-10-22T06:28:15.866Z,100633.81
2022-10-22T06:33:19.435Z,100632.59
2022-10-22T06:38:24.621Z,100631.16
2022-10-22T06:43:29.244Z,100647.84
2022-10-22T06:48:32.861Z,100651.44
2022-10-22T06:53:38.495Z,100653.63
2022-10-22T06:58:42.260Z,100654.38
2022-10-22T07:03:46.158Z,100649.53
2022-10-22T07:08:51.983Z,100656.47
2022-10-22T07:13:55.336Z,100633.91
2022-10-22T07:18:58.944Z,100626.38
2022-10-22T07:24:04.232Z,100617.44
2022-10-22T07:29:07.776Z,100616.56
2022-10-22T07:34:11.500Z,100610.91
2022-10-22T07:39:16.669Z,100600.75
2022-10-22T07:44:20.337Z,100599.78
2022-10-22T07:49:24.049Z,100617.44
2022-10-22T07:54:30.632Z,100594.97
2022-10-22T07:59:34.308Z,100586.47
2022-10-22T08:04:38.181Z,100569.25
2022-10-22T08:09:43.488Z,100564.16
2022-10-22T08:14:47.138Z,100551.00
2022-10-22T08:19:51.403Z,100529.31
2022-10-22T08:24:56.677Z,100543.09
2022-10-22T08:30:00.343Z,100546.00
2022-10-22T08:35:04.171Z,100515.97
2022-10-22T08:40:14.463Z,100526.13
2022-10-22T08:45:23.621Z,100531.91
2022-10-22T08:50:34.530Z,100523.66
2022-10-22T08:55:40.639Z,100519.63
2022-10-22T09:00:47.196Z,100515.69
2022-10-22T09:06:02.542Z,100518.88
2022-10-22T09:11:19.729Z,100526.34
2022-10-22T09:16:34.724Z,100519.91
2022-10-22T09:21:47.135Z,100541.69
2022-10-22T09:26:53.235Z,100534.28
2022-10-22T09:31:56.761Z,100561.16
2022-10-22T09:37:01.479Z,100578.50
2022-10-22T09:42:07.447Z,100572.00
2022-10-22T09:47:42.663Z,100571.84
2022-10-22T09:52:54.962Z,100555.25
2022-10-22T09:58:02.266Z,100534.97
2022-10-22T10:03:05.862Z,100509.59
2022-10-22T10:08:15.038Z,100509.59
2022-10-22T10:13:43.135Z,100559.78
2022-10-22T10:19:02.496Z,100544.03
2022-10-22T10:24:15.370Z,100518.75
2022-10-22T10:34:49.892Z,100501.25
2022-10-22T10:40:18.265Z,100493.34
2022-10-22T10:45:31.264Z,100507.63
2022-10-22T10:50:42.099Z,100505.84
2022-10-22T10:55:58.765Z,100496.16
2022-10-22T11:01:13.478Z,100488.38
2022-10-22T11:06:23.046Z,100469.81
2022-10-22T11:11:35.421Z,100470.59
2022-10-22T11:16:45.717Z,100460.78
2022-10-22T11:21:56.630Z,100481.25
2022-10-22T11:27:07.542Z,100480.16
2022-10-22T11:32:18.298Z,100470.59
2022-10-22T11:37:23.561Z,100455.53
2022-10-22T11:42:36.158Z,100453.47
2022-10-22T11:48:06.942Z,100469.16
2022-10-22T11:53:21.599Z,100461.44
2022-10-22T11:58:33.208Z,100469.28
2022-10-22T12:03:43.134Z,100479.50
2022-10-22T12:08:51.908Z,100482.03
2022-10-22T12:14:04.758Z,100477.84
2022-10-22T12:19:15.934Z,100471.06
2022-10-22T12:24:21.795Z,100466.03
2022-10-22T12:29:24.578Z,100470.41
2022-10-22T12:34:29.743Z,100475.19
2022-10-22T12:39:33.320Z,100464.91
2022-10-22T12:44:36.889Z,100475.59
2022-10-22T12:49:46.829Z,100458.00
2022-10-22T12:54:52.601Z,100463.34
2022-10-22T12:59:55.611Z,100451.94
2022-10-22T13:05:25.398Z,100462.28
2022-10-22T13:10:33.599Z,100456.22
2022-10-22T13:15:39.854Z,100444.06
2022-10-22T13:20:54.911Z,100441.41
2022-10-22T13:26:04.401Z,100453.72
2022-10-22T13:31:16.377Z,100467.44
2022-10-22T13:36:23.137Z,100457.69
2022-10-22T13:41:27.983Z,100451.41
2022-10-22T13:46:32.525Z,100452.34
2022-10-22T13:51:37.714Z,100455.22
2022-10-22T13:56:41.260Z,100449.09
2022-10-22T14:01:46.460Z,100447.38
2022-10-22T14:06:51.646Z,100472.56
2022-10-22T14:11:55.210Z,100474.59
2022-10-22T14:16:58.749Z,100469.72
2022-10-22T14:22:04.072Z,100465.81
2022-10-22T14:27:07.588Z,100467.69
2022-10-22T14:32:15.410Z,100466.34
2022-10-22T14:37:21.467Z,100457.84
2022-10-22T14:42:26.174Z,100464.63
2022-10-22T14:47:29.684Z,100454.25
2022-10-22T14:52:34.915Z,100457.09
2022-10-22T14:57:38.825Z,100454.88
2022-10-22T15:02:42.844Z,100451.63
2022-10-22T15:07:48.400Z,100462.78
2022-10-22T15:12:51.965Z,100484.16
2022-10-22T15:17:55.486Z,100492.47
2022-10-22T15:23:00.669Z,100526.78
2022-10-22T15:28:09.510Z,100529.66
2022-10-22T15:33:13.594Z,100528.31
2022-10-22T15:38:19.024Z,100525.84
2022-10-22T15:43:22.620Z,100520.91
2022-10-22T15:48:26.129Z,100538.97
2022-10-22T15:53:31.295Z,100544.09
2022-10-22T15:58:34.872Z,100528.59
2022-10-22T16:03:38.993Z,100528.56
2022-10-22T16:08:44.287Z,100527.81
2022-10-22T16:13:47.875Z,100528.06
2022-10-22T16:18:51.553Z,100528.41
2022-10-22T16:23:56.788Z,100542.72
2022-10-22T16:29:00.587Z,100550.03
2022-10-22T16:34:04.116Z,100577.81
2022-10-22T16:39:09.312Z,100588.72
2022-10-22T16:44:12.846Z,100581.88
2022-10-22T16:49:16.461Z,100581.97
2022-10-22T16:54:21.700Z,100574.31
2022-10-22T16:59:25.388Z,100589.47
2022-10-22T17:04:28.901Z,100592.00
2022-10-22T17:09:34.061Z,100595.34
2022-10-22T17:14:37.805Z,100580.38
2022-10-22T17:19:41.374Z,100560.84
2022-10-22T17:24:46.545Z,100561.19
2022-10-22T17:29:50.204Z,100576.34
2022-10-22T17:34:53.733Z,100583.16
2022-10-22T17:39:58.924Z,100568.78
2022-10-22T17:45:02.478Z,100576.63
2022-10-22T17:50:06.514Z,100584.09
2022-10-22T17:55:13.856Z,100588.44
2022-10-22T18:05:21.207Z,100583.59
2022-10-22T18:10:26.413Z,100592.81
2022-10-22T18:15:29.974Z,100586.47
2022-10-22T18:20:33.803Z,100597.41
2022-10-22T18:25:41.936Z,100595.59
2022-10-22T18:30:46.165Z,100589.00
2022-10-22T18:35:49.680Z,100576.56
2022-10-22T18:40:54.874Z,100574.97
2022-10-22T18:45:58.387Z,100575.94
2022-10-22T18:51:04.302Z,100581.97
2022-10-22T18:56:11.364Z,100586.09
2022-10-22T19:01:16.842Z,100573.22
2022-10-22T19:06:26.898Z,100586.81
2022-10-22T19:11:32.314Z,100579.94
2022-10-22T19:16:36.587Z,100565.56
2022-10-22T19:21:40.132Z,100569.78
2022-10-22T19:26:45.698Z,100557.34
2022-10-22T19:31:49.291Z,100544.63
2022-10-22T19:36:52.801Z,100545.91
2022-10-22T19:41:57.976Z,100546.91
2022-10-22T19:47:01.517Z,100539.28
2022-10-22T19:52:05.123Z,100531.94
2022-10-22T19:57:10.299Z,100530.84
2022-10-22T20:02:17.116Z,100517.25
2022-10-22T20:07:20.674Z,100521.25
2022-10-22T20:12:25.834Z,100528.47
2022-10-22T20:17:29.460Z,100510.94
2022-10-22T20:22:32.983Z,100502.28
2022-10-22T20:27:39.450Z,100503.78
2022-10-22T20:32:43.377Z,100494.91
2022-10-22T20:37:47.575Z,100486.19
2022-10-22T20:42:52.773Z,100493.50
2022-10-22T20:48:02.704Z,100494.81
2022-10-22T20:53:06.717Z,100487.16
2022-10-22T20:58:11.903Z,100479.31
2022-10-22T21:03:15.896Z,100463.25
2022-10-22T21:08:19.418Z,100465.91
2022-10-22T21:13:24.575Z,100467.00
2022-10-22T21:18:28.136Z,100467.19
2022-10-22T21:23:31.681Z,100462.31
2022-10-22T21:28:37.963Z,100462.53
2022-10-22T21:33:41.491Z,100460.31
2022-10-22T21:38:45.037Z,100448.84
2022-10-22T21:43:50.671Z,100439.28
2022-10-22T21:48:54.983Z,100436.84
2022-10-22T21:53:58.885Z,100455.66
2022-10-22T21:59:05.043Z,100450.81
2022-10-22T22:04:08.570Z,100437.56
2022-10-22T22:09:12.473Z,100441.31
2022-10-22T22:14:17.661Z,100430.34
2022-10-22T22:19:21.430Z,100443.63
2022-10-22T22:24:25.074Z,100429.25
2022-10-22T22:29:30.250Z,100427.75
2022-10-22T22:34:33.781Z,100421.66
2022-10-22T22:39:37.340Z,100424.38
2022-10-22T22:44:42.514Z,100432.25
2022-10-22T22:49:46.049Z,100430.22
2022-10-22T22:54:49.676Z,100436.34
2022-10-22T22:59:54.828Z,100442.31
2022-10-22T23:04:58.464Z,100430.59
2022-10-22T23:10:01.992Z,100432.09
2022-10-22T23:15:08.160Z,100427.59
2022-10-22T23:20:12.018Z,100418.50
2022-10-22T23:25:15.650Z,100413.50
2022-10-22T23:30:20.964Z,100406.28
2022-10-22T23:35:24.958Z,100428.97
2022-10-22T23:40:28.480Z,100425.66
2022-10-22T23:45:34.999Z,100420.19
2022-10-22T23:50:38.576Z,100416.00
2022-10-22T23:55:43.610Z,100425.38
